M/V Alton St. Amant — WDE7604 — position and weather

sailwx.info

Track history (hours):
 
Tides and Currents Weather Stations Pressure Air Temp Water Temp Dewpoint Dewpoint Depression Visibility Wind Speed Wind Dir Waves Ship Positions

M/V Alton St. Amant

Owner: The Barge Investment Group Five, L.L.C., Harahan, LA. More information available from US FCC via Universal Licensing System and Coast Guard Vessel Documentation Center.

Last reported at 2015-Aug-31 05:33 UTC. Time now 2015-Aug-31 06:53 UTC.
Position N 29°44' W 095°08'.

Length 25 m; draft 2.7 m.

Type: Towing. MMSI: 367395270.

Date/timePositionNaut miles runAvg speedWind from/ knotsBaromVisibWave heightAir tempDewpointWater temp
2015-Aug-31 05:33N 29°44' W 095°08'2 1.2
2015-Aug-31 04:08N 29°45' W 095°06'0 0.0
2015-Aug-30 17:28N 29°45' W 095°06'0 0.0
2015-Aug-30 16:32N 29°45' W 095°06'0 0.0
2015-Aug-30 15:32N 29°45' W 095°06'0 0.0
2015-Aug-30 14:33N 29°45' W 095°06'0 0.0
2015-Aug-30 13:33N 29°45' W 095°06'0 0.0
2015-Aug-30 12:33N 29°45' W 095°06'0 0.0
2015-Aug-30 11:30N 29°45' W 095°06'0 0.0
2015-Aug-30 10:32N 29°45' W 095°06'0 0.0
2015-Aug-30 09:33N 29°45' W 095°06'0 0.0
2015-Aug-30 08:22N 29°45' W 095°06'2 1.9
2015-Aug-30 07:32N 29°46' W 095°05'2 1.5
2015-Aug-30 06:33N 29°47' W 095°05'0 0.0
2015-Aug-30 05:21N 29°47' W 095°05'0 0.0
2015-Aug-30 04:28N 29°47' W 095°05'0 0.0
2015-Aug-30 03:11N 29°47' W 095°05'0 0.0
2015-Aug-29 23:13N 29°47' W 095°05'0 0.0
2015-Aug-29 22:23N 29°47' W 095°05'0 0.0
2015-Aug-29 21:30N 29°47' W 095°05'3 1.3
2015-Aug-29 19:21N 29°45' W 095°06'0 0.1
2015-Aug-29 17:20N 29°45' W 095°06'0 0.0
2015-Aug-29 16:33N 29°45' W 095°06'0 0.1
2015-Aug-29 15:32N 29°45' W 095°06'2 2.3
2015-Aug-29 14:32N 29°47' W 095°05'1 0.7
2015-Aug-29 13:33N 29°47' W 095°05'0 0.0
2015-Aug-29 12:33N 29°47' W 095°05'0 0.0
2015-Aug-29 11:33N 29°47' W 095°05'0 0.0
2015-Aug-29 10:33N 29°47' W 095°05'0 0.0
2015-Aug-29 09:31N 29°47' W 095°05'0 0.0
2015-Aug-29 08:26N 29°47' W 095°05'0 0.0
2015-Aug-29 07:29N 29°47' W 095°05'0 0.0
2015-Aug-29 06:33N 29°47' W 095°05'0 0.0
2015-Aug-28 22:32N 29°47' W 095°05'2 1.7
2015-Aug-28 21:17N 29°45' W 095°06'2 0.1
2015-Aug-28 00:31N 29°44' W 095°08'1 0.1
2015-Aug-27 15:21N 29°45' W 095°06'0 0.0
2015-Aug-27 12:17N 29°45' W 095°06'0 0.0
2015-Aug-27 11:33N 29°45' W 095°06'0 0.0
2015-Aug-27 10:23N 29°45' W 095°06'0 0.0
2015-Aug-27 09:33N 29°45' W 095°06'0 0.0
2015-Aug-27 08:33N 29°45' W 095°06'0 0.0
2015-Aug-27 07:33N 29°45' W 095°06'0 0.0
2015-Aug-27 06:33N 29°45' W 095°06'0 0.0
2015-Aug-27 05:32N 29°45' W 095°06'0 0.0
2015-Aug-27 04:24N 29°45' W 095°06'0 0.0
2015-Aug-27 03:33N 29°45' W 095°06'0 0.0
2015-Aug-27 02:26N 29°45' W 095°06'0 0.0
2015-Aug-27 01:29N 29°45' W 095°06'0 0.0
2015-Aug-27 00:03N 29°45' W 095°06'0 0.0
2015-Aug-26 23:32N 29°45' W 095°06'0 0.0
2015-Aug-26 22:33N 29°45' W 095°06'0 0.0
2015-Aug-26 21:33N 29°45' W 095°06'0 0.0
2015-Aug-26 19:20N 29°45' W 095°06'2 2.1
2015-Aug-26 18:31N 29°46' W 095°05'1 0.2
2015-Aug-26 12:20N 29°47' W 095°05'0 0.0
2015-Aug-26 11:29N 29°47' W 095°05'0 0.0
2015-Aug-26 10:27N 29°47' W 095°05'1 0.5
2015-Aug-26 09:24N 29°47' W 095°04'1 0.3
2015-Aug-26 07:16N 29°47' W 095°05'0 0.0
2015-Aug-26 06:32N 29°47' W 095°05'0 0.0
2015-Aug-26 05:31N 29°47' W 095°05'0 0.0
2015-Aug-25 23:33N 29°47' W 095°05'0 0.0
2015-Aug-25 06:18N 29°47' W 095°05'0 0.0
2015-Aug-25 05:33N 29°47' W 095°05'0 0.1
2015-Aug-25 03:04N 29°47' W 095°05'0 0.3
2015-Aug-25 02:26N 29°47' W 095°05'1 1.6
2015-Aug-25 01:33N 29°46' W 095°05'4 0.1
2015-Aug-23 17:17N 29°44' W 095°08'1 2.0
2015-Aug-23 16:33N 29°44' W 095°07'1 0.0
2015-Aug-22 12:22N 29°45' W 095°06'2 0.1
2015-Aug-21 16:07N 29°44' W 095°08'0 0.0
2015-Aug-21 15:33N 29°44' W 095°08'0 0.0
2015-Aug-21 13:05N 29°44' W 095°08'0 0.0
2015-Aug-21 12:17N 29°44' W 095°08'0 0.0
2015-Aug-21 09:29N 29°44' W 095°08'0 0.0
2015-Aug-21 07:12N 29°44' W 095°08'  
Track history (hours):
 
Tides and Currents Weather Stations Pressure Air Temp Water Temp Dewpoint Dewpoint Depression Visibility Wind Speed Wind Dir Waves Ship Positions

M/V Alton St. Amant

Owner: The Barge Investment Group Five, L.L.C., Harahan, LA. More information available from US FCC via Universal Licensing System and Coast Guard Vessel Documentation Center.

Last reported at 2015-Aug-31 05:33 UTC. Time now 2015-Aug-31 06:53 UTC.
Position N 29°44' W 095°08'.

Length 25 m; draft 2.7 m.

Type: Towing. MMSI: 367395270.

Date/timePositionNaut miles runAvg speedWind from/ knotsBaromVisibWave heightAir tempDewpointWater temp
2015-Aug-31 05:33N 29°44' W 095°08'2 1.2
2015-Aug-31 04:08N 29°45' W 095°06'0 0.0
2015-Aug-30 17:28N 29°45' W 095°06'0 0.0
2015-Aug-30 16:32N 29°45' W 095°06'0 0.0
2015-Aug-30 15:32N 29°45' W 095°06'0 0.0
2015-Aug-30 14:33N 29°45' W 095°06'0 0.0
2015-Aug-30 13:33N 29°45' W 095°06'0 0.0
2015-Aug-30 12:33N 29°45' W 095°06'0 0.0
2015-Aug-30 11:30N 29°45' W 095°06'0 0.0
2015-Aug-30 10:32N 29°45' W 095°06'0 0.0
2015-Aug-30 09:33N 29°45' W 095°06'0 0.0
2015-Aug-30 08:22N 29°45' W 095°06'2 1.9
2015-Aug-30 07:32N 29°46' W 095°05'2 1.5
2015-Aug-30 06:33N 29°47' W 095°05'0 0.0
2015-Aug-30 05:21N 29°47' W 095°05'0 0.0
2015-Aug-30 04:28N 29°47' W 095°05'0 0.0
2015-Aug-30 03:11N 29°47' W 095°05'0 0.0
2015-Aug-29 23:13N 29°47' W 095°05'0 0.0
2015-Aug-29 22:23N 29°47' W 095°05'0 0.0
2015-Aug-29 21:30N 29°47' W 095°05'3 1.3
2015-Aug-29 19:21N 29°45' W 095°06'0 0.1
2015-Aug-29 17:20N 29°45' W 095°06'0 0.0
2015-Aug-29 16:33N 29°45' W 095°06'0 0.1
2015-Aug-29 15:32N 29°45' W 095°06'2 2.3
2015-Aug-29 14:32N 29°47' W 095°05'1 0.7
2015-Aug-29 13:33N 29°47' W 095°05'0 0.0
2015-Aug-29 12:33N 29°47' W 095°05'0 0.0
2015-Aug-29 11:33N 29°47' W 095°05'0 0.0
2015-Aug-29 10:33N 29°47' W 095°05'0 0.0
2015-Aug-29 09:31N 29°47' W 095°05'0 0.0
2015-Aug-29 08:26N 29°47' W 095°05'0 0.0
2015-Aug-29 07:29N 29°47' W 095°05'0 0.0
2015-Aug-29 06:33N 29°47' W 095°05'0 0.0
2015-Aug-28 22:32N 29°47' W 095°05'2 1.7
2015-Aug-28 21:17N 29°45' W 095°06'2 0.1
2015-Aug-28 00:31N 29°44' W 095°08'1 0.1
2015-Aug-27 15:21N 29°45' W 095°06'0 0.0
2015-Aug-27 12:17N 29°45' W 095°06'0 0.0
2015-Aug-27 11:33N 29°45' W 095°06'0 0.0
2015-Aug-27 10:23N 29°45' W 095°06'0 0.0
2015-Aug-27 09:33N 29°45' W 095°06'0 0.0
2015-Aug-27 08:33N 29°45' W 095°06'0 0.0
2015-Aug-27 07:33N 29°45' W 095°06'0 0.0
2015-Aug-27 06:33N 29°45' W 095°06'0 0.0
2015-Aug-27 05:32N 29°45' W 095°06'0 0.0
2015-Aug-27 04:24N 29°45' W 095°06'0 0.0
2015-Aug-27 03:33N 29°45' W 095°06'0 0.0
2015-Aug-27 02:26N 29°45' W 095°06'0 0.0
2015-Aug-27 01:29N 29°45' W 095°06'0 0.0
2015-Aug-27 00:03N 29°45' W 095°06'0 0.0
2015-Aug-26 23:32N 29°45' W 095°06'0 0.0
2015-Aug-26 22:33N 29°45' W 095°06'0 0.0
2015-Aug-26 21:33N 29°45' W 095°06'0 0.0
2015-Aug-26 19:20N 29°45' W 095°06'2 2.1
2015-Aug-26 18:31N 29°46' W 095°05'1 0.2
2015-Aug-26 12:20N 29°47' W 095°05'0 0.0
2015-Aug-26 11:29N 29°47' W 095°05'0 0.0
2015-Aug-26 10:27N 29°47' W 095°05'1 0.5
2015-Aug-26 09:24N 29°47' W 095°04'1 0.3
2015-Aug-26 07:16N 29°47' W 095°05'0 0.0
2015-Aug-26 06:32N 29°47' W 095°05'0 0.0
2015-Aug-26 05:31N 29°47' W 095°05'0 0.0
2015-Aug-25 23:33N 29°47' W 095°05'0 0.0
2015-Aug-25 06:18N 29°47' W 095°05'0 0.0
2015-Aug-25 05:33N 29°47' W 095°05'0 0.1
2015-Aug-25 03:04N 29°47' W 095°05'0 0.3
2015-Aug-25 02:26N 29°47' W 095°05'1 1.6
2015-Aug-25 01:33N 29°46' W 095°05'4 0.1
2015-Aug-23 17:17N 29°44' W 095°08'1 2.0
2015-Aug-23 16:33N 29°44' W 095°07'1 0.0
2015-Aug-22 12:22N 29°45' W 095°06'2 0.1
2015-Aug-21 16:07N 29°44' W 095°08'0 0.0
2015-Aug-21 15:33N 29°44' W 095°08'0 0.0
2015-Aug-21 13:05N 29°44' W 095°08'0 0.0
2015-Aug-21 12:17N 29°44' W 095°08'0 0.0
2015-Aug-21 09:29N 29°44' W 095°08'0 0.0
2015-Aug-21 07:12N 29°44' W 095°08'  

Dump ship's entire track history